sensor_id;sensor_type;location;lat;lon;timestamp;temperature;humidity
56512;DHT22;42408;53.238;5.686;2023-06-26T00:02:11;22.60;99.90
56512;DHT22;42408;53.238;5.686;2023-06-26T00:04:36;22.50;99.90
56512;DHT22;42408;53.238;5.686;2023-06-26T00:07:03;22.60;99.90
56512;DHT22;42408;53.238;5.686;2023-06-26T00:09:29;22.50;99.90
56512;DHT22;42408;53.238;5.686;2023-06-26T00:11:54;22.50;99.90
56512;DHT22;42408;53.238;5.686;2023-06-26T00:14:20;22.50;99.90
56512;DHT22;42408;53.238;5.686;2023-06-26T00:16:46;22.50;99.90
56512;DHT22;42408;53.238;5.686;2023-06-26T00:19:12;22.40;99.90
56512;DHT22;42408;53.238;5.686;2023-06-26T00:21:37;22.40;99.90
56512;DHT22;42408;53.238;5.686;2023-06-26T00:24:03;22.40;99.90
56512;DHT22;42408;53.238;5.686;2023-06-26T00:26:28;22.40;99.90
56512;DHT22;42408;53.238;5.686;2023-06-26T00:28:54;22.40;99.90
56512;DHT22;42408;53.238;5.686;2023-06-26T00:31:19;22.40;99.90
56512;DHT22;42408;53.238;5.686;2023-06-26T00:33:45;22.30;99.90
56512;DHT22;42408;53.238;5.686;2023-06-26T00:36:10;22.30;99.90
56512;DHT22;42408;53.238;5.686;2023-06-26T00:38:36;22.30;99.90
56512;DHT22;42408;53.238;5.686;2023-06-26T00:41:01;22.30;99.90
56512;DHT22;42408;53.238;5.686;2023-06-26T00:43:27;22.30;99.90
56512;DHT22;42408;53.238;5.686;2023-06-26T00:45:52;22.30;99.90
56512;DHT22;42408;53.238;5.686;2023-06-26T00:48:18;22.30;99.90
56512;DHT22;42408;53.238;5.686;2023-06-26T00:50:44;22.20;99.90
56512;DHT22;42408;53.238;5.686;2023-06-26T00:53:09;22.20;99.90
56512;DHT22;42408;53.238;5.686;2023-06-26T00:55:35;22.20;99.90
56512;DHT22;42408;53.238;5.686;2023-06-26T00:58:00;22.20;99.90
56512;DHT22;42408;53.238;5.686;2023-06-26T01:00:26;22.20;99.90
56512;DHT22;42408;53.238;5.686;2023-06-26T01:02:51;22.20;99.90
56512;DHT22;42408;53.238;5.686;2023-06-26T01:05:17;22.10;99.90
56512;DHT22;42408;53.238;5.686;2023-06-26T01:07:47;22.10;99.90
56512;DHT22;42408;53.238;5.686;2023-06-26T01:10:12;22.10;99.90
56512;DHT22;42408;53.238;5.686;2023-06-26T01:12:38;22.10;99.90
56512;DHT22;42408;53.238;5.686;2023-06-26T01:15:04;22.00;99.90
56512;DHT22;42408;53.238;5.686;2023-06-26T01:17:30;22.00;99.90
56512;DHT22;42408;53.238;5.686;2023-06-26T01:19:57;22.00;99.90
56512;DHT22;42408;53.238;5.686;2023-06-26T01:27:46;21.90;99.90
56512;DHT22;42408;53.238;5.686;2023-06-26T01:30:12;21.90;99.90
56512;DHT22;42408;53.238;5.686;2023-06-26T01:32:39;21.90;99.90
56512;DHT22;42408;53.238;5.686;2023-06-26T01:35:05;21.80;99.90
56512;DHT22;42408;53.238;5.686;2023-06-26T01:37:31;21.80;99.90
56512;DHT22;42408;53.238;5.686;2023-06-26T01:39:57;21.80;99.90
56512;DHT22;42408;53.238;5.686;2023-06-26T01:42:22;21.80;99.90
56512;DHT22;42408;53.238;5.686;2023-06-26T01:44:48;21.80;99.90
56512;DHT22;42408;53.238;5.686;2023-06-26T01:47:15;21.70;99.90
56512;DHT22;42408;53.238;5.686;2023-06-26T01:52:39;21.70;99.90
56512;DHT22;42408;53.238;5.686;2023-06-26T01:55:11;21.70;99.90
56512;DHT22;42408;53.238;5.686;2023-06-26T01:57:38;21.70;99.90
56512;DHT22;42408;53.238;5.686;2023-06-26T02:00:04;21.70;99.90
56512;DHT22;42408;53.238;5.686;2023-06-26T02:02:31;21.70;99.90
56512;DHT22;42408;53.238;5.686;2023-06-26T02:04:57;21.70;99.90
56512;DHT22;42408;53.238;5.686;2023-06-26T02:07:22;21.70;99.90
56512;DHT22;42408;53.238;5.686;2023-06-26T02:09:48;21.70;99.90
56512;DHT22;42408;53.238;5.686;2023-06-26T02:12:13;21.70;99.90
56512;DHT22;42408;53.238;5.686;2023-06-26T02:14:39;21.80;99.90
56512;DHT22;42408;53.238;5.686;2023-06-26T02:17:04;21.70;99.90
56512;DHT22;42408;53.238;5.686;2023-06-26T02:19:30;21.80;99.90
56512;DHT22;42408;53.238;5.686;2023-06-26T02:21:55;21.80;99.90
56512;DHT22;42408;53.238;5.686;2023-06-26T02:24:21;21.80;99.90
56512;DHT22;42408;53.238;5.686;2023-06-26T02:26:46;21.80;99.90
56512;DHT22;42408;53.238;5.686;2023-06-26T02:29:12;21.80;99.90
56512;DHT22;42408;53.238;5.686;2023-06-26T02:31:38;21.80;99.90
56512;DHT22;42408;53.238;5.686;2023-06-26T02:34:03;21.80;99.90
56512;DHT22;42408;53.238;5.686;2023-06-26T02:36:29;21.80;99.90
56512;DHT22;42408;53.238;5.686;2023-06-26T02:38:55;21.80;99.90
56512;DHT22;42408;53.238;5.686;2023-06-26T02:41:20;21.70;99.90
56512;DHT22;42408;53.238;5.686;2023-06-26T02:43:46;21.70;99.90
56512;DHT22;42408;53.238;5.686;2023-06-26T02:46:11;21.70;99.90
56512;DHT22;42408;53.238;5.686;2023-06-26T02:48:37;21.70;99.90
56512;DHT22;42408;53.238;5.686;2023-06-26T02:51:02;21.60;99.90
56512;DHT22;42408;53.238;5.686;2023-06-26T02:53:28;21.60;99.90
56512;DHT22;42408;53.238;5.686;2023-06-26T02:55:53;21.60;99.90
56512;DHT22;42408;53.238;5.686;2023-06-26T02:58:19;21.60;99.90
56512;DHT22;42408;53.238;5.686;2023-06-26T03:00:45;21.70;99.90
56512;DHT22;42408;53.238;5.686;2023-06-26T03:03:10;21.60;99.90
56512;DHT22;42408;53.238;5.686;2023-06-26T03:05:38;21.50;99.90
56512;DHT22;42408;53.238;5.686;2023-06-26T03:08:03;21.50;99.90
56512;DHT22;42408;53.238;5.686;2023-06-26T03:10:29;21.50;99.90
56512;DHT22;42408;53.238;5.686;2023-06-26T03:12:54;21.50;99.90
56512;DHT22;42408;53.238;5.686;2023-06-26T03:15:20;21.50;99.90
56512;DHT22;42408;53.238;5.686;2023-06-26T03:17:45;21.50;99.90
56512;DHT22;42408;53.238;5.686;2023-06-26T03:20:11;21.40;99.90
56512;DHT22;42408;53.238;5.686;2023-06-26T03:22:37;21.40;99.90
56512;DHT22;42408;53.238;5.686;2023-06-26T03:25:02;21.40;99.90
56512;DHT22;42408;53.238;5.686;2023-06-26T03:27:28;21.40;99.90
56512;DHT22;42408;53.238;5.686;2023-06-26T03:29:54;21.40;99.90
56512;DHT22;42408;53.238;5.686;2023-06-26T03:32:19;21.40;99.90
56512;DHT22;42408;53.238;5.686;2023-06-26T03:34:45;21.40;99.90
56512;DHT22;42408;53.238;5.686;2023-06-26T03:37:10;21.30;99.90
56512;DHT22;42408;53.238;5.686;2023-06-26T03:39:36;21.30;99.90
56512;DHT22;42408;53.238;5.686;2023-06-26T03:42:01;21.30;99.90
56512;DHT22;42408;53.238;5.686;2023-06-26T03:44:27;21.30;99.90
56512;DHT22;42408;53.238;5.686;2023-06-26T03:46:53;21.30;99.90
56512;DHT22;42408;53.238;5.686;2023-06-26T03:49:19;21.30;99.90
56512;DHT22;42408;53.238;5.686;2023-06-26T03:51:44;21.20;99.90
56512;DHT22;42408;53.238;5.686;2023-06-26T03:54:10;21.10;99.90
56512;DHT22;42408;53.238;5.686;2023-06-26T03:56:36;21.10;99.90
56512;DHT22;42408;53.238;5.686;2023-06-26T03:59:01;21.00;99.90
56512;DHT22;42408;53.238;5.686;2023-06-26T04:01:28;21.00;99.90
56512;DHT22;42408;53.238;5.686;2023-06-26T04:03:53;20.90;99.90
56512;DHT22;42408;53.238;5.686;2023-06-26T04:06:19;20.80;99.90
56512;DHT22;42408;53.238;5.686;2023-06-26T04:08:44;20.70;99.90
56512;DHT22;42408;53.238;5.686;2023-06-26T04:11:10;20.70;99.90
56512;DHT22;42408;53.238;5.686;2023-06-26T04:13:36;20.60;99.90
56512;DHT22;42408;53.238;5.686;2023-06-26T04:16:01;20.60;99.90
56512;DHT22;42408;53.238;5.686;2023-06-26T04:18:27;20.50;99.90
56512;DHT22;42408;53.238;5.686;2023-06-26T04:21:08;20.40;99.90
56512;DHT22;42408;53.238;5.686;2023-06-26T04:23:34;20.40;99.90
56512;DHT22;42408;53.238;5.686;2023-06-26T04:25:59;20.30;99.90
56512;DHT22;42408;53.238;5.686;2023-06-26T04:28:25;20.30;99.90
56512;DHT22;42408;53.238;5.686;2023-06-26T04:30:51;20.20;99.90
56512;DHT22;42408;53.238;5.686;2023-06-26T04:33:16;20.20;99.90
56512;DHT22;42408;53.238;5.686;2023-06-26T04:35:42;20.10;99.90
56512;DHT22;42408;53.238;5.686;2023-06-26T04:38:10;20.10;99.90
56512;DHT22;42408;53.238;5.686;2023-06-26T04:40:35;20.00;99.90
56512;DHT22;42408;53.238;5.686;2023-06-26T04:43:01;20.00;99.90
56512;DHT22;42408;53.238;5.686;2023-06-26T04:45:26;20.00;99.90
56512;DHT22;42408;53.238;5.686;2023-06-26T04:47:52;19.90;99.90
56512;DHT22;42408;53.238;5.686;2023-06-26T04:50:17;19.90;99.90
56512;DHT22;42408;53.238;5.686;2023-06-26T04:52:44;19.80;99.90
56512;DHT22;42408;53.238;5.686;2023-06-26T04:55:09;19.90;99.90
56512;DHT22;42408;53.238;5.686;2023-06-26T04:57:35;19.80;99.90
56512;DHT22;42408;53.238;5.686;2023-06-26T05:00:01;19.80;99.90
56512;DHT22;42408;53.238;5.686;2023-06-26T05:02:26;19.90;99.90
56512;DHT22;42408;53.238;5.686;2023-06-26T05:04:52;19.90;99.90
56512;DHT22;42408;53.238;5.686;2023-06-26T05:07:17;19.80;99.90
56512;DHT22;42408;53.238;5.686;2023-06-26T05:09:43;19.80;99.90
56512;DHT22;42408;53.238;5.686;2023-06-26T05:12:08;19.70;99.90
56512;DHT22;42408;53.238;5.686;2023-06-26T05:14:34;19.70;99.90
56512;DHT22;42408;53.238;5.686;2023-06-26T05:16:59;19.70;99.90
56512;DHT22;42408;53.238;5.686;2023-06-26T05:19:25;19.70;99.90
56512;DHT22;42408;53.238;5.686;2023-06-26T05:21:50;19.70;99.90
56512;DHT22;42408;53.238;5.686;2023-06-26T05:24:16;19.70;99.90
56512;DHT22;42408;53.238;5.686;2023-06-26T05:26:42;19.70;99.90
56512;DHT22;42408;53.238;5.686;2023-06-26T05:29:08;19.70;99.90
56512;DHT22;42408;53.238;5.686;2023-06-26T05:31:33;19.80;99.90
56512;DHT22;42408;53.238;5.686;2023-06-26T05:34:01;19.80;99.90
56512;DHT22;42408;53.238;5.686;2023-06-26T05:36:27;19.80;99.90
56512;DHT22;42408;53.238;5.686;2023-06-26T05:38:54;19.90;99.90
56512;DHT22;42408;53.238;5.686;2023-06-26T05:41:21;19.90;99.90
56512;DHT22;42408;53.238;5.686;2023-06-26T05:43:47;19.90;99.90
56512;DHT22;42408;53.238;5.686;2023-06-26T05:46:13;20.00;99.90
56512;DHT22;42408;53.238;5.686;2023-06-26T05:48:38;19.90;99.90
56512;DHT22;42408;53.238;5.686;2023-06-26T05:51:04;19.90;99.90
56512;DHT22;42408;53.238;5.686;2023-06-26T05:53:30;19.90;99.90
56512;DHT22;42408;53.238;5.686;2023-06-26T05:55:56;19.90;99.90
56512;DHT22;42408;53.238;5.686;2023-06-26T05:58:22;19.90;99.90
56512;DHT22;42408;53.238;5.686;2023-06-26T06:00:48;19.90;99.90
56512;DHT22;42408;53.238;5.686;2023-06-26T06:03:14;20.00;99.90
56512;DHT22;42408;53.238;5.686;2023-06-26T06:05:39;20.00;99.90
56512;DHT22;42408;53.238;5.686;2023-06-26T06:08:05;20.00;99.90
56512;DHT22;42408;53.238;5.686;2023-06-26T06:10:30;20.00;99.90
56512;DHT22;42408;53.238;5.686;2023-06-26T06:12:56;20.00;99.90
56512;DHT22;42408;53.238;5.686;2023-06-26T06:15:22;20.00;99.90
56512;DHT22;42408;53.238;5.686;2023-06-26T06:17:47;20.00;99.90
56512;DHT22;42408;53.238;5.686;2023-06-26T06:20:13;20.00;99.90
56512;DHT22;42408;53.238;5.686;2023-06-26T06:22:38;20.00;99.90
56512;DHT22;42408;53.238;5.686;2023-06-26T06:25:04;20.00;99.90
56512;DHT22;42408;53.238;5.686;2023-06-26T06:27:30;20.00;99.90
56512;DHT22;42408;53.238;5.686;2023-06-26T06:29:56;20.00;99.90
56512;DHT22;42408;53.238;5.686;2023-06-26T06:32:22;20.00;99.90
56512;DHT22;42408;53.238;5.686;2023-06-26T06:34:47;20.00;99.90
56512;DHT22;42408;53.238;5.686;2023-06-26T06:37:13;20.20;99.90
56512;DHT22;42408;53.238;5.686;2023-06-26T06:39:38;20.50;99.90
56512;DHT22;42408;53.238;5.686;2023-06-26T06:42:04;21.00;99.90
56512;DHT22;42408;53.238;5.686;2023-06-26T06:44:30;21.80;99.90
56512;DHT22;42408;53.238;5.686;2023-06-26T06:46:58;22.60;99.90
56512;DHT22;42408;53.238;5.686;2023-06-26T06:49:24;23.40;99.90
56512;DHT22;42408;53.238;5.686;2023-06-26T06:51:49;24.00;99.90
56512;DHT22;42408;53.238;5.686;2023-06-26T06:54:16;24.60;99.90
56512;DHT22;42408;53.238;5.686;2023-06-26T06:56:42;25.10;99.90
56512;DHT22;42408;53.238;5.686;2023-06-26T06:59:07;25.40;99.90
56512;DHT22;42408;53.238;5.686;2023-06-26T07:01:33;26.10;99.90
56512;DHT22;42408;53.238;5.686;2023-06-26T07:03:58;26.60;99.90
56512;DHT22;42408;53.238;5.686;2023-06-26T07:06:24;27.00;99.90
56512;DHT22;42408;53.238;5.686;2023-06-26T07:08:49;27.10;99.90
56512;DHT22;42408;53.238;5.686;2023-06-26T07:11:15;27.60;99.90
56512;DHT22;42408;53.238;5.686;2023-06-26T07:13:41;27.70;99.90
56512;DHT22;42408;53.238;5.686;2023-06-26T07:16:07;27.60;99.90
56512;DHT22;42408;53.238;5.686;2023-06-26T07:18:32;27.20;99.90
56512;DHT22;42408;53.238;5.686;2023-06-26T07:20:58;26.70;99.90
56512;DHT22;42408;53.238;5.686;2023-06-26T07:23:23;26.50;99.90
56512;DHT22;42408;53.238;5.686;2023-06-26T07:25:49;26.20;99.90
56512;DHT22;42408;53.238;5.686;2023-06-26T07:28:14;26.00;99.90
56512;DHT22;42408;53.238;5.686;2023-06-26T07:30:40;25.70;99.90
56512;DHT22;42408;53.238;5.686;2023-06-26T07:33:06;25.50;99.90
56512;DHT22;42408;53.238;5.686;2023-06-26T07:35:31;25.20;99.90
56512;DHT22;42408;53.238;5.686;2023-06-26T07:37:57;25.10;99.90
56512;DHT22;42408;53.238;5.686;2023-06-26T07:40:22;25.10;99.90
56512;DHT22;42408;53.238;5.686;2023-06-26T07:42:48;25.00;99.90
56512;DHT22;42408;53.238;5.686;2023-06-26T07:45:14;25.20;99.90
56512;DHT22;42408;53.238;5.686;2023-06-26T07:47:39;25.10;99.90
56512;DHT22;42408;53.238;5.686;2023-06-26T07:50:05;25.40;99.90
56512;DHT22;42408;53.238;5.686;2023-06-26T07:52:31;25.80;99.90
56512;DHT22;42408;53.238;5.686;2023-06-26T07:54:57;25.70;99.90
56512;DHT22;42408;53.238;5.686;2023-06-26T07:57:23;25.50;99.90
56512;DHT22;42408;53.238;5.686;2023-06-26T07:59:48;25.60;99.90
56512;DHT22;42408;53.238;5.686;2023-06-26T08:02:14;25.90;99.90
56512;DHT22;42408;53.238;5.686;2023-06-26T08:04:39;26.10;99.90
56512;DHT22;42408;53.238;5.686;2023-06-26T08:07:05;26.10;99.90
56512;DHT22;42408;53.238;5.686;2023-06-26T08:09:31;26.00;99.90
56512;DHT22;42408;53.238;5.686;2023-06-26T08:11:56;26.20;99.90
56512;DHT22;42408;53.238;5.686;2023-06-26T08:14:22;26.60;99.90
56512;DHT22;42408;53.238;5.686;2023-06-26T08:16:48;26.80;99.90
56512;DHT22;42408;53.238;5.686;2023-06-26T08:19:14;26.90;99.90
56512;DHT22;42408;53.238;5.686;2023-06-26T08:21:40;26.80;99.90
56512;DHT22;42408;53.238;5.686;2023-06-26T08:24:06;26.50;99.90
56512;DHT22;42408;53.238;5.686;2023-06-26T08:26:31;26.40;99.90
56512;DHT22;42408;53.238;5.686;2023-06-26T08:28:57;26.10;99.90
56512;DHT22;42408;53.238;5.686;2023-06-26T08:31:22;26.20;99.90
56512;DHT22;42408;53.238;5.686;2023-06-26T08:33:48;26.30;99.90
56512;DHT22;42408;53.238;5.686;2023-06-26T08:36:13;26.40;99.90
56512;DHT22;42408;53.238;5.686;2023-06-26T08:38:39;26.40;99.90
56512;DHT22;42408;53.238;5.686;2023-06-26T08:41:07;26.60;99.90
56512;DHT22;42408;53.238;5.686;2023-06-26T08:43:33;26.70;99.90
56512;DHT22;42408;53.238;5.686;2023-06-26T08:45:59;26.80;99.90
56512;DHT22;42408;53.238;5.686;2023-06-26T08:48:25;26.90;99.90
56512;DHT22;42408;53.238;5.686;2023-06-26T08:50:54;26.80;99.90
56512;DHT22;42408;53.238;5.686;2023-06-26T08:55:52;27.00;99.90
56512;DHT22;42408;53.238;5.686;2023-06-26T08:58:18;27.10;99.90
56512;DHT22;42408;53.238;5.686;2023-06-26T09:00:44;27.10;99.90
56512;DHT22;42408;53.238;5.686;2023-06-26T09:03:10;27.20;99.90
56512;DHT22;42408;53.238;5.686;2023-06-26T09:05:35;27.30;99.90
56512;DHT22;42408;53.238;5.686;2023-06-26T09:08:01;27.30;99.60
56512;DHT22;42408;53.238;5.686;2023-06-26T09:10:27;27.20;99.20
56512;DHT22;42408;53.238;5.686;2023-06-26T09:12:55;27.10;99.20
56512;DHT22;42408;53.238;5.686;2023-06-26T09:15:20;26.90;99.50
56512;DHT22;42408;53.238;5.686;2023-06-26T09:17:47;26.90;99.90
56512;DHT22;42408;53.238;5.686;2023-06-26T09:20:13;27.10;99.90
56512;DHT22;42408;53.238;5.686;2023-06-26T09:22:41;27.00;99.00
56512;DHT22;42408;53.238;5.686;2023-06-26T09:25:06;26.90;99.00
56512;DHT22;42408;53.238;5.686;2023-06-26T09:27:32;26.60;99.00
56512;DHT22;42408;53.238;5.686;2023-06-26T09:29:58;26.40;98.30
56512;DHT22;42408;53.238;5.686;2023-06-26T09:32:24;26.20;99.90
56512;DHT22;42408;53.238;5.686;2023-06-26T09:34:51;26.10;99.90
56512;DHT22;42408;53.238;5.686;2023-06-26T09:37:17;26.20;99.60
56512;DHT22;42408;53.238;5.686;2023-06-26T09:39:43;26.30;98.70
56512;DHT22;42408;53.238;5.686;2023-06-26T09:42:08;26.40;99.90
56512;DHT22;42408;53.238;5.686;2023-06-26T09:44:35;26.60;99.80
56512;DHT22;42408;53.238;5.686;2023-06-26T09:47:03;26.70;99.70
56512;DHT22;42408;53.238;5.686;2023-06-26T09:49:29;26.80;98.60
56512;DHT22;42408;53.238;5.686;2023-06-26T09:51:54;26.70;98.50
56512;DHT22;42408;53.238;5.686;2023-06-26T09:54:21;26.70;99.00
56512;DHT22;42408;53.238;5.686;2023-06-26T09:56:47;26.60;98.70
56512;DHT22;42408;53.238;5.686;2023-06-26T09:59:12;26.50;97.90
56512;DHT22;42408;53.238;5.686;2023-06-26T10:01:43;26.40;97.80
56512;DHT22;42408;53.238;5.686;2023-06-26T10:04:10;26.30;98.90
56512;DHT22;42408;53.238;5.686;2023-06-26T10:06:36;26.40;99.30
56512;DHT22;42408;53.238;5.686;2023-06-26T10:09:02;26.40;98.70
56512;DHT22;42408;53.238;5.686;2023-06-26T10:12:19;26.60;98.40
56512;DHT22;42408;53.238;5.686;2023-06-26T10:14:15;26.70;98.90
56512;DHT22;42408;53.238;5.686;2023-06-26T10:16:41;26.80;98.30
56512;DHT22;42408;53.238;5.686;2023-06-26T10:19:08;27.10;97.70
56512;DHT22;42408;53.238;5.686;2023-06-26T10:21:34;27.10;97.20
56512;DHT22;42408;53.238;5.686;2023-06-26T10:24:02;27.10;97.30
56512;DHT22;42408;53.238;5.686;2023-06-26T10:26:28;26.90;98.40
56512;DHT22;42408;53.238;5.686;2023-06-26T10:28:54;26.80;98.20
56512;DHT22;42408;53.238;5.686;2023-06-26T10:31:21;27.00;96.30
56512;DHT22;42408;53.238;5.686;2023-06-26T10:33:48;27.00;96.50
56512;DHT22;42408;53.238;5.686;2023-06-26T10:36:14;27.00;97.30
56512;DHT22;42408;53.238;5.686;2023-06-26T10:38:50;26.90;96.70
56512;DHT22;42408;53.238;5.686;2023-06-26T10:41:19;26.80;96.10
56512;DHT22;42408;53.238;5.686;2023-06-26T10:43:44;26.80;98.10
56512;DHT22;42408;53.238;5.686;2023-06-26T10:46:11;26.60;96.60
56512;DHT22;42408;53.238;5.686;2023-06-26T10:48:55;26.60;96.60
56512;DHT22;42408;53.238;5.686;2023-06-26T10:51:21;26.30;96.80
56512;DHT22;42408;53.238;5.686;2023-06-26T10:53:53;26.20;97.50
56512;DHT22;42408;53.238;5.686;2023-06-26T10:56:19;26.30;97.00
56512;DHT22;42408;53.238;5.686;2023-06-26T10:58:45;26.20;96.90
56512;DHT22;42408;53.238;5.686;2023-06-26T11:01:19;26.10;98.20
56512;DHT22;42408;53.238;5.686;2023-06-26T11:04:06;26.10;98.20
56512;DHT22;42408;53.238;5.686;2023-06-26T11:06:32;26.00;97.70
56512;DHT22;42408;53.238;5.686;2023-06-26T11:09:00;25.80;97.80
56512;DHT22;42408;53.238;5.686;2023-06-26T11:14:10;25.90;98.00
56512;DHT22;42408;53.238;5.686;2023-06-26T11:16:36;25.80;97.50
56512;DHT22;42408;53.238;5.686;2023-06-26T11:19:01;25.90;97.40
56512;DHT22;42408;53.238;5.686;2023-06-26T11:21:27;25.80;97.50
56512;DHT22;42408;53.238;5.686;2023-06-26T11:23:53;25.60;97.50
56512;DHT22;42408;53.238;5.686;2023-06-26T11:26:20;25.60;98.00
56512;DHT22;42408;53.238;5.686;2023-06-26T11:28:55;25.60;97.70
56512;DHT22;42408;53.238;5.686;2023-06-26T11:31:24;25.60;98.40
56512;DHT22;42408;53.238;5.686;2023-06-26T11:33:50;25.60;98.10
56512;DHT22;42408;53.238;5.686;2023-06-26T11:36:15;25.40;98.60
56512;DHT22;42408;53.238;5.686;2023-06-26T11:38:41;25.20;98.60
56512;DHT22;42408;53.238;5.686;2023-06-26T11:41:06;25.10;99.00
56512;DHT22;42408;53.238;5.686;2023-06-26T11:43:33;25.00;99.00
56512;DHT22;42408;53.238;5.686;2023-06-26T11:45:59;24.90;99.30
56512;DHT22;42408;53.238;5.686;2023-06-26T11:48:25;24.70;99.70
56512;DHT22;42408;53.238;5.686;2023-06-26T11:50:50;24.70;99.50
56512;DHT22;42408;53.238;5.686;2023-06-26T11:53:17;24.80;99.50
56512;DHT22;42408;53.238;5.686;2023-06-26T11:55:42;24.70;99.80
56512;DHT22;42408;53.238;5.686;2023-06-26T11:58:10;24.90;99.70
56512;DHT22;42408;53.238;5.686;2023-06-26T12:00:40;25.00;99.20
56512;DHT22;42408;53.238;5.686;2023-06-26T12:03:06;24.90;99.70
56512;DHT22;42408;53.238;5.686;2023-06-26T12:05:31;25.20;99.90
56512;DHT22;42408;53.238;5.686;2023-06-26T12:07:57;25.40;99.00
56512;DHT22;42408;53.238;5.686;2023-06-26T12:10:24;25.60;99.70
56512;DHT22;42408;53.238;5.686;2023-06-26T12:12:50;25.70;98.70
56512;DHT22;42408;53.238;5.686;2023-06-26T12:15:16;25.70;98.40
56512;DHT22;42408;53.238;5.686;2023-06-26T12:17:41;25.50;97.80
56512;DHT22;42408;53.238;5.686;2023-06-26T12:20:20;25.30;99.00
56512;DHT22;42408;53.238;5.686;2023-06-26T12:22:47;25.10;98.90
56512;DHT22;42408;53.238;5.686;2023-06-26T12:25:13;24.90;98.40
56512;DHT22;42408;53.238;5.686;2023-06-26T12:27:38;24.70;98.70
56512;DHT22;42408;53.238;5.686;2023-06-26T12:30:04;24.50;99.80
56512;DHT22;42408;53.238;5.686;2023-06-26T12:32:31;24.50;99.70
56512;DHT22;42408;53.238;5.686;2023-06-26T12:34:57;24.40;99.20
56512;DHT22;42408;53.238;5.686;2023-06-26T12:37:23;24.40;99.60
56512;DHT22;42408;53.238;5.686;2023-06-26T12:42:17;24.70;99.90
56512;DHT22;42408;53.238;5.686;2023-06-26T12:44:43;24.80;99.30
56512;DHT22;42408;53.238;5.686;2023-06-26T12:47:09;24.80;99.40
56512;DHT22;42408;53.238;5.686;2023-06-26T12:52:02;24.80;99.50
56512;DHT22;42408;53.238;5.686;2023-06-26T12:54:28;24.90;99.90
56512;DHT22;42408;53.238;5.686;2023-06-26T12:56:53;25.00;98.70
56512;DHT22;42408;53.238;5.686;2023-06-26T12:59:19;25.00;99.10
56512;DHT22;42408;53.238;5.686;2023-06-26T13:01:45;25.00;99.10
56512;DHT22;42408;53.238;5.686;2023-06-26T13:04:11;25.00;98.70
56512;DHT22;42408;53.238;5.686;2023-06-26T13:06:36;24.70;98.80
56512;DHT22;42408;53.238;5.686;2023-06-26T13:09:02;24.60;99.20
56512;DHT22;42408;53.238;5.686;2023-06-26T13:11:33;24.50;98.80
56512;DHT22;42408;53.238;5.686;2023-06-26T13:14:00;24.50;99.00
56512;DHT22;42408;53.238;5.686;2023-06-26T13:16:26;24.50;99.40
56512;DHT22;42408;53.238;5.686;2023-06-26T13:18:51;24.50;99.50
56512;DHT22;42408;53.238;5.686;2023-06-26T13:21:17;24.40;98.80
56512;DHT22;42408;53.238;5.686;2023-06-26T13:23:43;24.30;98.80
56512;DHT22;42408;53.238;5.686;2023-06-26T13:26:09;24.30;99.20
56512;DHT22;42408;53.238;5.686;2023-06-26T13:28:35;24.30;98.90
56512;DHT22;42408;53.238;5.686;2023-06-26T13:31:01;24.30;98.80
56512;DHT22;42408;53.238;5.686;2023-06-26T13:33:26;24.50;99.40
56512;DHT22;42408;53.238;5.686;2023-06-26T13:35:52;24.50;98.60
56512;DHT22;42408;53.238;5.686;2023-06-26T13:38:19;24.40;98.40
56512;DHT22;42408;53.238;5.686;2023-06-26T13:40:45;24.40;99.10
56512;DHT22;42408;53.238;5.686;2023-06-26T13:43:10;24.30;99.60
56512;DHT22;42408;53.238;5.686;2023-06-26T13:45:36;24.30;99.70
56512;DHT22;42408;53.238;5.686;2023-06-26T13:48:02;24.30;98.80
56512;DHT22;42408;53.238;5.686;2023-06-26T13:50:28;24.20;99.80
56512;DHT22;42408;53.238;5.686;2023-06-26T13:52:54;24.20;99.30
56512;DHT22;42408;53.238;5.686;2023-06-26T13:55:20;24.20;99.40
56512;DHT22;42408;53.238;5.686;2023-06-26T13:57:48;24.20;98.70
56512;DHT22;42408;53.238;5.686;2023-06-26T14:00:14;24.10;98.70
56512;DHT22;42408;53.238;5.686;2023-06-26T14:02:45;23.90;98.30
56512;DHT22;42408;53.238;5.686;2023-06-26T14:05:10;23.80;98.40
56512;DHT22;42408;53.238;5.686;2023-06-26T14:07:36;23.70;99.40
56512;DHT22;42408;53.238;5.686;2023-06-26T14:10:03;23.70;99.90
56512;DHT22;42408;53.238;5.686;2023-06-26T14:12:29;23.80;99.00
56512;DHT22;42408;53.238;5.686;2023-06-26T14:14:54;23.90;98.70
56512;DHT22;42408;53.238;5.686;2023-06-26T14:17:20;24.00;97.90
56512;DHT22;42408;53.238;5.686;2023-06-26T14:19:45;24.10;98.60
56512;DHT22;42408;53.238;5.686;2023-06-26T14:22:11;24.20;98.40
56512;DHT22;42408;53.238;5.686;2023-06-26T14:24:37;24.20;98.40
56512;DHT22;42408;53.238;5.686;2023-06-26T14:27:02;24.20;98.50
56512;DHT22;42408;53.238;5.686;2023-06-26T14:29:29;24.20;98.20
56512;DHT22;42408;53.238;5.686;2023-06-26T14:31:54;24.30;97.70
56512;DHT22;42408;53.238;5.686;2023-06-26T14:34:20;24.30;97.60
56512;DHT22;42408;53.238;5.686;2023-06-26T14:36:45;24.30;97.60
56512;DHT22;42408;53.238;5.686;2023-06-26T14:39:11;24.30;97.90
56512;DHT22;42408;53.238;5.686;2023-06-26T14:41:37;24.30;97.20
56512;DHT22;42408;53.238;5.686;2023-06-26T14:44:02;24.40;96.60
56512;DHT22;42408;53.238;5.686;2023-06-26T14:46:30;24.40;97.10
56512;DHT22;42408;53.238;5.686;2023-06-26T14:48:55;24.40;96.90
56512;DHT22;42408;53.238;5.686;2023-06-26T14:51:21;24.40;97.80
56512;DHT22;42408;53.238;5.686;2023-06-26T14:53:47;24.30;97.40
56512;DHT22;42408;53.238;5.686;2023-06-26T14:56:13;24.40;98.60
56512;DHT22;42408;53.238;5.686;2023-06-26T14:58:38;24.40;97.00
56512;DHT22;42408;53.238;5.686;2023-06-26T15:01:04;24.30;96.10
56512;DHT22;42408;53.238;5.686;2023-06-26T15:03:29;24.40;97.00
56512;DHT22;42408;53.238;5.686;2023-06-26T15:05:55;24.40;95.80
56512;DHT22;42408;53.238;5.686;2023-06-26T15:08:20;24.30;95.90
56512;DHT22;42408;53.238;5.686;2023-06-26T15:10:46;24.30;95.20
56512;DHT22;42408;53.238;5.686;2023-06-26T15:13:11;24.20;95.20
56512;DHT22;42408;53.238;5.686;2023-06-26T15:15:37;24.10;95.40
56512;DHT22;42408;53.238;5.686;2023-06-26T15:18:03;24.10;95.30
56512;DHT22;42408;53.238;5.686;2023-06-26T15:20:30;24.20;95.40
56512;DHT22;42408;53.238;5.686;2023-06-26T15:22:55;24.10;95.10
56512;DHT22;42408;53.238;5.686;2023-06-26T15:25:21;24.10;95.00
56512;DHT22;42408;53.238;5.686;2023-06-26T15:27:47;24.10;94.60
56512;DHT22;42408;53.238;5.686;2023-06-26T15:30:12;24.10;94.90
56512;DHT22;42408;53.238;5.686;2023-06-26T15:32:40;24.10;94.50
56512;DHT22;42408;53.238;5.686;2023-06-26T15:35:05;23.80;94.00
56512;DHT22;42408;53.238;5.686;2023-06-26T15:37:31;23.80;94.50
56512;DHT22;42408;53.238;5.686;2023-06-26T15:39:57;23.70;93.80
56512;DHT22;42408;53.238;5.686;2023-06-26T15:42:25;23.60;92.90